createdAt,value
2022-11-16T00:00:46.858Z,3.4
2022-11-16T00:02:47.502Z,3.6
2022-11-16T00:04:46.459Z,3.4
2022-11-16T00:06:48.534Z,3.5
2022-11-16T00:10:45.778Z,3.3
2022-11-16T00:12:45.674Z,3.2
2022-11-16T00:14:45.451Z,3.5
2022-11-16T00:18:45.025Z,3.1
2022-11-16T00:20:44.882Z,3.5
2022-11-16T00:22:44.666Z,3.4
2022-11-16T00:24:44.430Z,3.6
2022-11-16T00:26:44.794Z,3.4
2022-11-16T00:28:45.357Z,3.2
2022-11-16T00:30:44.062Z,3.5
2022-11-16T00:34:43.253Z,3.3
2022-11-16T00:36:43.839Z,3.4
2022-11-16T00:38:43.134Z,3.2
2022-11-16T00:40:42.629Z,3.5
2022-11-16T00:42:42.248Z,3.3
2022-11-16T00:44:42.035Z,3.5
2022-11-16T00:48:41.474Z,3.4
2022-11-16T00:50:43.045Z,3.5
2022-11-16T00:52:41.000Z,3.8
2022-11-16T00:56:40.561Z,3.5
2022-11-16T00:58:40.248Z,3.6
2022-11-16T01:00:41.055Z,3.7
2022-11-16T01:02:40.109Z,3.6
2022-11-16T01:04:39.955Z,3.5
2022-11-16T01:06:39.781Z,3.8
2022-11-16T01:08:40.600Z,3.7
2022-11-16T01:10:40.895Z,3.5
2022-11-16T01:12:39.689Z,3.7
2022-11-16T01:14:42.744Z,3.4
2022-11-16T01:16:38.408Z,3.8
2022-11-16T01:18:37.966Z,3.9
2022-11-16T01:20:40.153Z,4.0
2022-11-16T01:22:38.645Z,3.7
2022-11-16T01:24:37.278Z,4.2
2022-11-16T01:26:37.047Z,4.1
2022-11-16T01:28:37.210Z,4.0
2022-11-16T01:30:36.482Z,4.3
2022-11-16T01:32:36.687Z,4.6
2022-11-16T01:34:36.305Z,4.8
2022-11-16T01:36:35.997Z,4.5
2022-11-16T01:38:36.449Z,4.2
2022-11-16T01:40:36.182Z,4.3
2022-11-16T01:42:35.490Z,4.5
2022-11-16T01:44:55.348Z,4.3
2022-11-16T01:46:35.293Z,2.8
2022-11-16T01:50:35.100Z,2.4
2022-11-16T01:52:38.107Z,2.5
2022-11-16T01:54:39.454Z,2.2
2022-11-16T01:56:36.166Z,1.8
2022-11-16T01:58:34.179Z,2.0
2022-11-16T02:02:32.849Z,2.4
2022-11-16T02:04:32.401Z,2.1
2022-11-16T02:06:46.697Z,2.0
2022-11-16T02:08:56.584Z,1.9
2022-11-16T02:10:47.803Z,1.8
2022-11-16T02:12:45.041Z,2.2
2022-11-16T02:14:47.916Z,2.0
2022-11-16T02:18:37.535Z,2.1
2022-11-16T02:20:45.679Z,2.2
2022-11-16T02:22:47.433Z,2.0
2022-11-16T02:24:42.857Z,2.2
2022-11-16T02:26:43.692Z,1.9
2022-11-16T02:28:36.382Z,2.2
2022-11-16T02:30:29.151Z,1.9
2022-11-16T02:32:34.891Z,2.0
2022-11-16T02:34:34.432Z,1.8
2022-11-16T02:36:28.716Z,2.0
2022-11-16T02:38:32.978Z,2.2
2022-11-16T02:40:32.313Z,1.9
2022-11-16T02:42:31.976Z,2.0
2022-11-16T02:44:31.975Z,1.9
2022-11-16T02:48:33.829Z,2.1
2022-11-16T02:50:30.003Z,2.5
2022-11-16T02:54:27.435Z,2.7
2022-11-16T02:56:26.388Z,2.6
2022-11-16T02:58:26.805Z,3.2
2022-11-16T03:00:30.347Z,3.1
2022-11-16T03:02:31.844Z,3.5
2022-11-16T03:04:29.566Z,3.3
2022-11-16T03:06:29.168Z,3.6
2022-11-16T03:10:34.617Z,3.8
2022-11-16T03:12:29.293Z,3.6
2022-11-16T03:14:30.545Z,4.1
2022-11-16T03:16:29.296Z,4.2
2022-11-16T03:18:28.058Z,3.5
2022-11-16T03:20:27.104Z,3.9
2022-11-16T03:22:27.520Z,4.0
2022-11-16T03:24:22.923Z,3.7
2022-11-16T03:26:28.781Z,3.6
2022-11-16T03:28:28.291Z,4.3
2022-11-16T03:30:24.234Z,3.6
2022-11-16T03:32:27.542Z,3.9
2022-11-16T03:34:27.466Z,3.5
2022-11-16T03:36:26.161Z,3.1
2022-11-16T03:42:22.509Z,2.8
2022-11-16T03:44:20.801Z,3.0
2022-11-16T03:46:20.046Z,2.7
2022-11-16T03:48:19.456Z,2.4
2022-11-16T03:50:18.859Z,2.5
2022-11-16T03:52:19.027Z,2.6
2022-11-16T03:54:19.006Z,2.3
2022-11-16T03:56:18.100Z,2.6
2022-11-16T03:58:18.169Z,3.0
2022-11-16T04:04:27.045Z,2.8
2022-11-16T04:06:26.459Z,2.7
2022-11-16T04:08:26.664Z,2.9
2022-11-16T04:10:26.198Z,3.2
2022-11-16T04:12:25.553Z,3.3
2022-11-16T04:14:28.823Z,3.9
2022-11-16T04:16:25.097Z,3.4
2022-11-16T04:20:25.349Z,3.7
2022-11-16T04:22:27.682Z,4.0
2022-11-16T04:24:18.068Z,3.4
2022-11-16T04:26:14.222Z,3.8
2022-11-16T04:28:16.756Z,3.4
2022-11-16T04:30:14.272Z,4.1
2022-11-16T04:32:23.695Z,3.9
2022-11-16T04:34:22.728Z,3.8
2022-11-16T04:36:22.602Z,3.5
2022-11-16T04:38:12.506Z,3.2
2022-11-16T04:40:13.211Z,3.3
2022-11-16T04:42:13.921Z,3.6
2022-11-16T04:44:11.420Z,3.2
2022-11-16T04:48:12.247Z,3.3
2022-11-16T04:50:11.594Z,3.0
2022-11-16T04:52:10.343Z,3.5
2022-11-16T04:54:10.103Z,3.4
2022-11-16T04:56:11.468Z,3.7
2022-11-16T04:58:09.514Z,3.4
2022-11-16T05:00:10.077Z,3.2
2022-11-16T05:02:09.458Z,3.3
2022-11-16T05:04:09.220Z,3.4
2022-11-16T05:06:08.820Z,3.2
2022-11-16T05:08:09.293Z,3.1
2022-11-16T05:10:09.123Z,2.9
2022-11-16T05:18:06.749Z,2.4
2022-11-16T05:20:16.983Z,2.7
2022-11-16T05:24:15.789Z,2.8
2022-11-16T05:26:05.537Z,2.5
2022-11-16T05:28:05.062Z,2.4
2022-11-16T05:30:05.669Z,2.7
2022-11-16T05:32:05.774Z,2.4
2022-11-16T05:34:04.543Z,3.1
2022-11-16T05:36:04.780Z,2.8
2022-11-16T05:38:04.352Z,2.3
2022-11-16T05:40:04.324Z,2.6
2022-11-16T05:42:03.087Z,2.8
2022-11-16T05:44:02.659Z,3.5
2022-11-16T05:46:02.199Z,2.6
2022-11-16T05:48:01.975Z,2.9
2022-11-16T05:50:01.527Z,3.0
2022-11-16T05:52:01.192Z,2.8
2022-11-16T05:54:01.386Z,2.9
2022-11-16T05:56:00.732Z,2.8
2022-11-16T05:58:00.622Z,2.4
2022-11-16T06:00:00.160Z,2.7
2022-11-16T06:02:00.104Z,2.8
2022-11-16T06:04:00.049Z,2.9
2022-11-16T06:05:59.966Z,3.4
2022-11-16T06:07:58.514Z,2.7
2022-11-16T06:09:58.192Z,3.6
2022-11-16T06:11:57.914Z,2.8
2022-11-16T06:13:57.654Z,2.4
2022-11-16T06:15:57.905Z,3.0
2022-11-16T06:17:57.081Z,2.7
2022-11-16T06:21:56.250Z,2.8
2022-11-16T06:23:55.906Z,2.9
2022-11-16T06:25:55.972Z,3.1
2022-11-16T06:27:55.491Z,2.9
2022-11-16T06:29:55.461Z,3.4
2022-11-16T06:31:55.169Z,3.2
2022-11-16T06:33:54.247Z,2.8
2022-11-16T06:35:54.123Z,2.9
2022-11-16T06:37:54.698Z,2.6
2022-11-16T06:39:53.218Z,2.8
2022-11-16T06:41:53.036Z,3.0
2022-11-16T06:43:52.642Z,2.7
2022-11-16T06:45:55.020Z,2.9
2022-11-16T06:47:52.211Z,3.5
2022-11-16T06:49:51.643Z,3.3
2022-11-16T06:51:51.312Z,3.5
2022-11-16T06:53:51.024Z,2.8
2022-11-16T06:55:50.896Z,3.1
2022-11-16T06:57:50.850Z,3.2
2022-11-16T06:59:51.513Z,3.3
2022-11-16T07:01:50.820Z,3.2
2022-11-16T07:03:49.288Z,3.4
2022-11-16T07:05:49.441Z,3.3
2022-11-16T07:07:52.866Z,2.8
2022-11-16T07:09:48.294Z,3.1
2022-11-16T07:11:48.117Z,2.6
2022-11-16T07:13:47.929Z,3.1
2022-11-16T07:15:47.448Z,2.5
2022-11-16T07:17:47.210Z,2.9
2022-11-16T07:19:46.940Z,2.8
2022-11-16T07:23:46.788Z,2.6
2022-11-16T07:25:46.288Z,3.0
2022-11-16T07:27:45.461Z,2.7
2022-11-16T07:29:45.040Z,3.4
2022-11-16T07:31:44.839Z,2.8
2022-11-16T07:33:44.312Z,3.0
2022-11-16T07:35:43.993Z,2.5
2022-11-16T07:37:43.627Z,2.7
2022-11-16T07:39:44.677Z,3.0
2022-11-16T07:41:44.143Z,2.8
2022-11-16T07:43:42.624Z,3.0
2022-11-16T07:45:42.202Z,2.4
2022-11-16T07:47:42.007Z,2.7
2022-11-16T07:49:41.971Z,2.4
2022-11-16T07:51:41.974Z,2.3
2022-11-16T07:53:42.785Z,2.2
2022-11-16T07:55:40.471Z,2.3
2022-11-16T07:57:40.183Z,3.5
2022-11-16T07:59:39.782Z,2.7
2022-11-16T08:01:39.646Z,2.4
2022-11-16T08:03:40.380Z,2.7
2022-11-16T08:05:38.898Z,2.3
2022-11-16T08:07:38.535Z,2.8
2022-11-16T08:09:38.447Z,2.5
2022-11-16T08:11:37.648Z,2.8
2022-11-16T08:13:39.437Z,2.5
2022-11-16T08:15:37.271Z,2.2
2022-11-16T08:17:37.350Z,2.5
2022-11-16T08:19:38.462Z,2.1
2022-11-16T08:21:36.208Z,2.9
2022-11-16T08:23:35.831Z,2.3
2022-11-16T08:25:35.270Z,2.4
2022-11-16T08:27:35.259Z,2.5
2022-11-16T08:29:34.749Z,1.9
2022-11-16T08:33:34.077Z,2.0
2022-11-16T08:35:34.299Z,2.4
2022-11-16T08:37:33.105Z,1.8
2022-11-16T08:39:32.911Z,2.2
2022-11-16T08:41:34.858Z,2.1
2022-11-16T08:43:32.987Z,2.2
2022-11-16T08:45:33.098Z,2.5
2022-11-16T08:47:31.886Z,2.3
2022-11-16T08:49:31.065Z,2.5
2022-11-16T08:51:30.769Z,2.1
2022-11-16T08:53:30.524Z,2.4
2022-11-16T08:57:29.895Z,2.6
2022-11-16T08:59:29.467Z,2.5
2022-11-16T09:01:31.625Z,2.3
2022-11-16T09:03:28.837Z,2.2
2022-11-16T09:05:28.716Z,2.0
2022-11-16T09:07:28.493Z,2.3
2022-11-16T09:09:28.018Z,2.6
2022-11-16T09:11:28.257Z,2.4
2022-11-16T09:13:28.057Z,2.9
2022-11-16T09:17:26.620Z,2.6
2022-11-16T09:21:27.874Z,2.5
2022-11-16T09:23:25.966Z,2.3
2022-11-16T09:27:25.036Z,3.0
2022-11-16T09:29:26.603Z,2.7
2022-11-16T09:31:26.413Z,2.2
2022-11-16T09:33:24.220Z,1.9
2022-11-16T09:35:23.780Z,2.7
2022-11-16T09:37:23.670Z,2.4
2022-11-16T09:39:31.103Z,2.2
2022-11-16T09:41:38.212Z,2.5
2022-11-16T09:43:34.472Z,2.3
2022-11-16T09:47:34.031Z,2.2
2022-11-16T09:49:25.236Z,2.0
2022-11-16T09:51:24.825Z,1.9
2022-11-16T09:53:30.316Z,2.1
2022-11-16T09:55:25.482Z,2.5
2022-11-16T09:57:26.763Z,2.1
2022-11-16T09:59:23.901Z,2.2
2022-11-16T10:01:25.668Z,2.1
2022-11-16T10:05:21.708Z,2.5
2022-11-16T10:07:23.858Z,1.9
2022-11-16T10:09:19.829Z,2.3
2022-11-16T10:11:30.762Z,2.8
2022-11-16T10:13:29.199Z,2.3
2022-11-16T10:15:34.576Z,2.2
2022-11-16T10:17:29.998Z,2.1
2022-11-16T10:19:27.181Z,2.7
2022-11-16T10:21:29.083Z,2.2
2022-11-16T10:23:31.168Z,1.8
2022-11-16T10:25:21.089Z,2.1
2022-11-16T10:27:34.151Z,2.2
2022-11-16T10:33:19.963Z,2.1
2022-11-16T10:35:19.047Z,3.1
2022-11-16T10:37:14.951Z,2.5
2022-11-16T10:39:17.336Z,2.0
2022-11-16T10:41:19.487Z,2.3
2022-11-16T10:43:16.837Z,2.6
2022-11-16T10:45:19.665Z,2.0
2022-11-16T10:47:22.210Z,2.2
2022-11-16T10:49:18.840Z,2.6
2022-11-16T10:51:13.069Z,2.5
2022-11-16T10:53:14.635Z,2.2
2022-11-16T10:57:13.141Z,2.4
2022-11-16T10:59:13.819Z,2.0
2022-11-16T11:01:11.501Z,1.6
2022-11-16T11:03:11.674Z,3.2
2022-11-16T11:05:16.239Z,1.9
2022-11-16T11:07:21.702Z,1.8
2022-11-16T11:09:19.377Z,1.9
2022-11-16T11:11:30.019Z,1.7
2022-11-16T11:13:23.521Z,1.5
2022-11-16T11:15:25.565Z,2.0
2022-11-16T11:19:17.710Z,2.1
2022-11-16T11:23:14.509Z,1.8
2022-11-16T11:25:19.102Z,2.0
2022-11-16T11:27:07.800Z,2.2
2022-11-16T11:29:21.502Z,2.4
2022-11-16T11:33:10.811Z,2.9
2022-11-16T11:35:26.195Z,2.2
2022-11-16T11:37:14.383Z,2.5
2022-11-16T11:39:17.153Z,2.4
2022-11-16T11:41:17.913Z,2.8
2022-11-16T11:43:21.237Z,2.7
2022-11-16T11:45:12.149Z,3.0
2022-11-16T11:49:12.525Z,2.7
2022-11-16T11:51:11.923Z,3.2
2022-11-16T11:59:04.166Z,4.4
2022-11-16T12:01:25.613Z,3.5
2022-11-16T12:03:23.098Z,4.4
2022-11-16T12:07:09.668Z,4.2
2022-11-16T12:09:15.059Z,4.0
2022-11-16T12:11:12.241Z,4.6
2022-11-16T12:15:09.691Z,5.2
2022-11-16T12:17:11.436Z,4.1
2022-11-16T12:19:21.349Z,4.6
2022-11-16T12:21:11.441Z,4.1
2022-11-16T12:23:18.672Z,5.0
2022-11-16T12:25:15.103Z,4.8
2022-11-16T12:27:09.487Z,4.3
2022-11-16T12:31:19.403Z,3.5
2022-11-16T12:33:14.307Z,4.8
2022-11-16T12:37:07.634Z,4.9
2022-11-16T12:39:10.067Z,4.2
2022-11-16T12:41:13.288Z,4.9
2022-11-16T12:43:07.915Z,3.7
2022-11-16T12:45:17.682Z,4.6
2022-11-16T12:47:06.935Z,4.9
2022-11-16T12:49:15.525Z,4.7
2022-11-16T12:51:05.978Z,4.3
2022-11-16T12:53:12.256Z,6.1
2022-11-16T12:55:28.312Z,4.8
2022-11-16T12:57:05.425Z,3.9
2022-11-16T12:59:14.444Z,4.6
2022-11-16T13:01:09.452Z,5.5
2022-11-16T13:03:11.503Z,5.2
2022-11-16T13:05:00.846Z,5.0
2022-11-16T13:07:06.485Z,5.2
2022-11-16T13:09:02.951Z,4.9
2022-11-16T13:10:59.911Z,4.6
2022-11-16T13:13:21.987Z,4.5
2022-11-16T13:14:56.962Z,4.8
2022-11-16T13:16:56.354Z,5.3
2022-11-16T13:18:54.909Z,4.9
2022-11-16T13:21:00.931Z,4.8
2022-11-16T13:22:59.252Z,5.1
2022-11-16T13:24:59.237Z,4.6
2022-11-16T13:27:05.071Z,5.0
2022-11-16T13:29:00.777Z,4.9
2022-11-16T13:31:01.276Z,4.6
2022-11-16T13:33:08.446Z,5.6
2022-11-16T13:34:52.866Z,4.8
2022-11-16T13:36:52.229Z,4.6
2022-11-16T13:38:52.958Z,5.0
2022-11-16T13:40:51.353Z,4.3
2022-11-16T13:43:04.079Z,4.6
2022-11-16T13:44:52.882Z,5.0
2022-11-16T13:46:56.465Z,4.8
2022-11-16T13:48:50.920Z,4.4
2022-11-16T13:50:53.689Z,4.5
2022-11-16T13:54:52.387Z,5.4
2022-11-16T13:56:51.034Z,6.1
2022-11-16T13:58:54.009Z,4.5
2022-11-16T14:00:58.659Z,4.9
2022-11-16T14:03:08.850Z,4.7
2022-11-16T14:04:58.753Z,5.5
2022-11-16T14:06:56.689Z,5.2
2022-11-16T14:08:50.551Z,4.6
2022-11-16T14:10:59.011Z,4.8
2022-11-16T14:12:50.496Z,4.3
2022-11-16T14:15:03.724Z,4.5
2022-11-16T14:16:49.092Z,4.8
2022-11-16T14:18:48.992Z,4.9
2022-11-16T14:20:56.031Z,5.7
2022-11-16T14:23:00.283Z,5.1
2022-11-16T14:24:52.011Z,5.2
2022-11-16T14:26:58.048Z,4.2
2022-11-16T14:29:05.559Z,3.9
2022-11-16T14:30:57.413Z,4.9
2022-11-16T14:32:48.208Z,5.1
2022-11-16T14:34:47.870Z,3.8
2022-11-16T14:36:46.488Z,4.2
2022-11-16T14:38:45.189Z,3.8
2022-11-16T14:40:46.976Z,4.4
2022-11-16T14:44:44.538Z,4.0
2022-11-16T14:46:44.442Z,3.9
2022-11-16T14:48:45.040Z,4.2
2022-11-16T14:50:46.609Z,3.9
2022-11-16T14:52:46.594Z,4.2
2022-11-16T14:54:50.067Z,3.9
2022-11-16T14:56:56.122Z,3.0
2022-11-16T14:58:49.995Z,3.1
2022-11-16T15:00:52.035Z,4.5
2022-11-16T15:02:44.796Z,4.3
2022-11-16T15:04:41.533Z,4.0
2022-11-16T15:06:44.993Z,4.2
2022-11-16T15:08:45.636Z,4.0
2022-11-16T15:10:46.981Z,4.5
2022-11-16T15:12:42.011Z,5.4
2022-11-16T15:14:46.288Z,3.9
2022-11-16T15:18:40.119Z,4.5
2022-11-16T15:20:48.045Z,3.9
2022-11-16T15:22:41.369Z,4.3
2022-11-16T15:24:38.897Z,3.5
2022-11-16T15:26:38.873Z,4.4
2022-11-16T15:28:39.887Z,4.5
2022-11-16T15:30:39.647Z,3.7
2022-11-16T15:32:40.912Z,3.8
2022-11-16T15:34:38.579Z,4.0
2022-11-16T15:36:38.816Z,2.8
2022-11-16T15:38:37.546Z,3.1
2022-11-16T15:40:36.971Z,3.7
2022-11-16T15:42:40.413Z,3.4
2022-11-16T15:44:36.612Z,3.3
2022-11-16T15:46:36.350Z,2.6
2022-11-16T15:48:37.926Z,2.1
2022-11-16T15:50:35.791Z,2.3
2022-11-16T15:52:45.022Z,3.5
2022-11-16T15:54:45.772Z,3.2
2022-11-16T15:56:35.222Z,2.6
2022-11-16T15:58:37.830Z,3.6
2022-11-16T16:00:36.342Z,3.1
2022-11-16T16:02:34.179Z,2.5
2022-11-16T16:04:33.862Z,2.9
2022-11-16T16:06:45.868Z,2.6
2022-11-16T16:10:32.928Z,2.7
2022-11-16T16:12:32.539Z,2.8
2022-11-16T16:14:32.278Z,2.3
2022-11-16T16:16:35.513Z,2.1
2022-11-16T16:18:39.740Z,2.0
2022-11-16T16:20:32.039Z,2.5
2022-11-16T16:22:33.384Z,2.0
2022-11-16T16:24:36.041Z,2.3
2022-11-16T16:26:31.165Z,2.2
2022-11-16T16:30:32.072Z,1.6
2022-11-16T16:32:32.466Z,1.9
2022-11-16T16:34:29.564Z,1.3
2022-11-16T16:36:29.183Z,1.9
2022-11-16T16:38:29.204Z,1.6
2022-11-16T16:40:28.737Z,1.2
2022-11-16T16:42:28.308Z,1.5
2022-11-16T16:46:27.889Z,1.8
2022-11-16T16:48:28.276Z,1.6
2022-11-16T16:50:27.267Z,1.8
2022-11-16T16:52:27.115Z,1.6
2022-11-16T16:54:27.644Z,1.7
2022-11-16T16:56:26.908Z,1.5
2022-11-16T16:58:26.796Z,1.7
2022-11-16T17:00:26.604Z,2.0
2022-11-16T17:02:26.090Z,2.6
2022-11-16T17:04:25.240Z,2.4
2022-11-16T17:06:25.184Z,1.5
2022-11-16T17:08:24.594Z,1.7
2022-11-16T17:12:24.303Z,1.4
2022-11-16T17:14:23.821Z,1.9
2022-11-16T17:16:23.422Z,1.4
2022-11-16T17:18:23.244Z,1.5
2022-11-16T17:20:22.828Z,1.6
2022-11-16T17:22:22.628Z,1.8
2022-11-16T17:24:23.553Z,1.7
2022-11-16T17:28:21.892Z,1.5
2022-11-16T17:30:21.546Z,1.9
2022-11-16T17:32:21.115Z,2.0
2022-11-16T17:34:20.885Z,2.1
2022-11-16T17:36:20.605Z,2.0
2022-11-16T17:38:20.520Z,2.3
2022-11-16T17:40:20.638Z,2.2
2022-11-16T17:42:19.684Z,2.3
2022-11-16T17:44:21.804Z,2.5
2022-11-16T17:48:19.120Z,2.1
2022-11-16T17:52:19.044Z,2.7
2022-11-16T17:54:18.532Z,2.5
2022-11-16T17:58:17.377Z,2.7
2022-11-16T18:00:17.602Z,2.9
2022-11-16T18:02:16.677Z,2.6
2022-11-16T18:04:16.449Z,2.8
2022-11-16T18:08:15.873Z,2.5
2022-11-16T18:10:19.255Z,2.8
2022-11-16T18:12:15.223Z,2.4
2022-11-16T18:14:14.904Z,2.8
2022-11-16T18:16:16.948Z,2.9
2022-11-16T18:18:15.744Z,2.5
2022-11-16T18:24:14.153Z,2.8
2022-11-16T18:28:12.856Z,2.7
2022-11-16T18:30:13.925Z,2.3
2022-11-16T18:32:12.182Z,2.9
2022-11-16T18:34:12.926Z,2.7
2022-11-16T18:38:12.209Z,2.9
2022-11-16T18:40:12.112Z,2.7
2022-11-16T18:44:10.882Z,2.8
2022-11-16T18:46:10.093Z,2.9
2022-11-16T18:48:09.873Z,3.1
2022-11-16T18:50:18.074Z,2.6
2022-11-16T18:54:09.521Z,2.9
2022-11-16T19:00:09.731Z,3.4
2022-11-16T19:02:10.176Z,3.0
2022-11-16T19:04:07.827Z,2.7
2022-11-16T19:06:09.043Z,3.0
2022-11-16T19:08:06.777Z,2.9
2022-11-16T19:10:07.836Z,2.7
2022-11-16T19:14:06.839Z,2.8
2022-11-16T19:16:07.001Z,2.5
2022-11-16T19:18:21.027Z,3.0
2022-11-16T19:20:05.900Z,2.6
2022-11-16T19:22:04.688Z,2.5
2022-11-16T19:24:06.229Z,2.9
2022-11-16T19:26:05.997Z,2.7
2022-11-16T19:28:03.827Z,2.6
2022-11-16T19:30:04.205Z,2.8
2022-11-16T19:32:03.124Z,3.0
2022-11-16T19:34:05.412Z,2.9
2022-11-16T19:36:11.315Z,2.5
2022-11-16T19:38:01.987Z,3.6
2022-11-16T19:40:01.765Z,2.5
2022-11-16T19:42:01.460Z,2.7
2022-11-16T19:46:02.517Z,2.6
2022-11-16T19:48:01.222Z,2.2
2022-11-16T19:50:01.130Z,2.9
2022-11-16T19:52:00.147Z,2.4
2022-11-16T19:54:01.030Z,2.2
2022-11-16T19:56:00.274Z,2.9
2022-11-16T19:59:58.960Z,2.5
2022-11-16T20:01:58.462Z,2.8
2022-11-16T20:04:01.223Z,2.5
2022-11-16T20:06:07.663Z,2.7
2022-11-16T20:07:57.559Z,2.4
2022-11-16T20:09:57.479Z,3.0
2022-11-16T20:11:58.477Z,2.6
2022-11-16T20:13:57.710Z,2.4
2022-11-16T20:16:00.511Z,2.6
2022-11-16T20:17:56.307Z,2.4
2022-11-16T20:19:56.521Z,2.8
2022-11-16T20:21:58.521Z,2.4
2022-11-16T20:24:00.209Z,2.8
2022-11-16T20:25:54.869Z,2.7
2022-11-16T20:27:54.571Z,2.9
2022-11-16T20:29:54.316Z,2.6
2022-11-16T20:31:54.003Z,2.8
2022-11-16T20:33:55.237Z,2.9
2022-11-16T20:35:58.727Z,2.8
2022-11-16T20:39:56.259Z,3.0
2022-11-16T20:41:52.554Z,2.7
2022-11-16T20:43:53.851Z,2.4
2022-11-16T20:45:52.706Z,2.6
2022-11-16T20:47:51.894Z,2.8
2022-11-16T20:49:51.841Z,2.6
2022-11-16T20:53:51.528Z,2.8
2022-11-16T20:55:50.891Z,2.6
2022-11-16T20:57:50.238Z,2.5
2022-11-16T20:59:49.826Z,2.7
2022-11-16T21:01:51.659Z,2.4
2022-11-16T21:03:49.218Z,2.5
2022-11-16T21:07:48.809Z,2.8
2022-11-16T21:09:58.121Z,2.2
2022-11-16T21:11:57.933Z,2.1
2022-11-16T21:13:57.916Z,2.5
2022-11-16T21:15:54.251Z,2.6
2022-11-16T21:17:47.558Z,2.8
2022-11-16T21:20:12.320Z,2.2
2022-11-16T21:21:46.741Z,2.4
2022-11-16T21:23:50.680Z,2.7
2022-11-16T21:25:45.921Z,2.4
2022-11-16T21:27:46.312Z,2.9
2022-11-16T21:29:45.311Z,2.1
2022-11-16T21:33:45.280Z,2.4
2022-11-16T21:35:44.436Z,1.9
2022-11-16T21:37:44.068Z,2.8
2022-11-16T21:39:43.837Z,2.0
2022-11-16T21:43:44.030Z,2.4
2022-11-16T21:45:43.422Z,2.0
2022-11-16T21:47:42.922Z,2.2
2022-11-16T21:50:02.385Z,2.0
2022-11-16T21:51:42.335Z,1.7
2022-11-16T21:53:42.689Z,2.0
2022-11-16T21:55:47.892Z,2.1
2022-11-16T21:57:41.057Z,1.7
2022-11-16T21:59:41.238Z,1.9
2022-11-16T22:01:50.276Z,1.6
2022-11-16T22:03:40.224Z,1.7
2022-11-16T22:05:49.605Z,1.5
2022-11-16T22:07:39.789Z,1.8
2022-11-16T22:11:39.043Z,1.5
2022-11-16T22:13:39.190Z,1.6
2022-11-16T22:15:38.649Z,1.7
2022-11-16T22:17:41.635Z,1.6
2022-11-16T22:21:37.602Z,1.4
2022-11-16T22:23:38.722Z,1.5
2022-11-16T22:25:37.069Z,1.4
2022-11-16T22:27:52.422Z,1.2
2022-11-16T22:31:36.399Z,1.3
2022-11-16T22:33:36.860Z,1.2
2022-11-16T22:35:36.012Z,1.6
2022-11-16T22:37:35.212Z,1.5
2022-11-16T22:39:36.758Z,1.3
2022-11-16T22:43:36.566Z,1.1
2022-11-16T22:45:34.115Z,1.5
2022-11-16T22:47:34.886Z,1.1
2022-11-16T22:49:33.909Z,1.3
2022-11-16T22:53:34.028Z,1.4
2022-11-16T22:55:34.085Z,1.3
2022-11-16T22:59:32.053Z,1.0
2022-11-16T23:01:32.006Z,1.2
2022-11-16T23:03:31.547Z,1.1
2022-11-16T23:05:31.064Z,1.3
2022-11-16T23:07:30.735Z,1.0
2022-11-16T23:11:39.972Z,0.9
2022-11-16T23:13:47.087Z,1.1
2022-11-16T23:15:39.602Z,0.9
2022-11-16T23:17:30.160Z,0.8
2022-11-16T23:19:39.271Z,0.9
2022-11-16T23:23:38.336Z,0.7
2022-11-16T23:25:38.086Z,0.8
2022-11-16T23:27:37.722Z,0.9
2022-11-16T23:31:27.242Z,0.7
2022-11-16T23:35:26.733Z,0.8
2022-11-16T23:37:26.369Z,0.9
2022-11-16T23:39:26.061Z,0.6
2022-11-16T23:43:35.561Z,0.7
2022-11-16T23:47:25.405Z,0.8
2022-11-16T23:51:25.258Z,0.9
2022-11-16T23:53:24.444Z,0.6
2022-11-16T23:55:24.113Z,0.7
2022-11-16T23:57:23.419Z,0.5
2022-11-16T23:59:23.369Z,0.7
